sensor_id;sensor_type;location;lat;lon;timestamp;temperature;humidity
18717;DHT22;9487;50.892;6.906;2022-12-20T00:00:55;11.30;99.90
18717;DHT22;9487;50.892;6.906;2022-12-20T00:03:22;11.10;99.90
18717;DHT22;9487;50.892;6.906;2022-12-20T00:05:48;11.00;99.90
18717;DHT22;9487;50.892;6.906;2022-12-20T00:08:17;11.00;99.90
18717;DHT22;9487;50.892;6.906;2022-12-20T00:10:44;10.90;99.90
18717;DHT22;9487;50.892;6.906;2022-12-20T00:13:11;10.90;99.90
18717;DHT22;9487;50.892;6.906;2022-12-20T00:15:38;10.80;99.90
18717;DHT22;9487;50.892;6.906;2022-12-20T00:18:05;10.80;99.90
18717;DHT22;9487;50.892;6.906;2022-12-20T00:20:32;10.80;99.90
18717;DHT22;9487;50.892;6.906;2022-12-20T00:23:00;10.80;99.90
18717;DHT22;9487;50.892;6.906;2022-12-20T00:25:28;10.80;99.90
18717;DHT22;9487;50.892;6.906;2022-12-20T00:27:55;10.80;99.90
18717;DHT22;9487;50.892;6.906;2022-12-20T00:30:21;10.70;99.90
18717;DHT22;9487;50.892;6.906;2022-12-20T00:32:48;10.70;99.90
18717;DHT22;9487;50.892;6.906;2022-12-20T00:35:15;10.60;99.90
18717;DHT22;9487;50.892;6.906;2022-12-20T00:37:42;10.60;99.90
18717;DHT22;9487;50.892;6.906;2022-12-20T00:40:09;10.60;99.90
18717;DHT22;9487;50.892;6.906;2022-12-20T00:42:37;10.40;99.90
18717;DHT22;9487;50.892;6.906;2022-12-20T00:45:05;10.30;99.90
18717;DHT22;9487;50.892;6.906;2022-12-20T00:47:31;10.20;99.90
18717;DHT22;9487;50.892;6.906;2022-12-20T00:49:59;10.10;99.90
18717;DHT22;9487;50.892;6.906;2022-12-20T00:52:26;10.10;99.90
18717;DHT22;9487;50.892;6.906;2022-12-20T00:54:53;10.00;99.90
18717;DHT22;9487;50.892;6.906;2022-12-20T00:57:19;10.00;99.90
18717;DHT22;9487;50.892;6.906;2022-12-20T00:59:48;9.90;99.90
18717;DHT22;9487;50.892;6.906;2022-12-20T01:02:14;9.90;99.90
18717;DHT22;9487;50.892;6.906;2022-12-20T01:04:41;9.90;99.90
18717;DHT22;9487;50.892;6.906;2022-12-20T01:07:08;9.90;99.90
18717;DHT22;9487;50.892;6.906;2022-12-20T01:09:35;9.80;99.90
18717;DHT22;9487;50.892;6.906;2022-12-20T01:12:03;9.80;99.90
18717;DHT22;9487;50.892;6.906;2022-12-20T01:14:29;9.80;99.90
18717;DHT22;9487;50.892;6.906;2022-12-20T01:16:58;9.70;99.90
18717;DHT22;9487;50.892;6.906;2022-12-20T01:19:24;9.70;99.90
18717;DHT22;9487;50.892;6.906;2022-12-20T01:21:51;9.70;99.90
18717;DHT22;9487;50.892;6.906;2022-12-20T01:24:18;9.60;99.90
18717;DHT22;9487;50.892;6.906;2022-12-20T01:26:46;9.70;99.90
18717;DHT22;9487;50.892;6.906;2022-12-20T01:29:13;9.70;99.90
18717;DHT22;9487;50.892;6.906;2022-12-20T01:31:40;9.70;99.90
18717;DHT22;9487;50.892;6.906;2022-12-20T01:34:08;9.70;99.90
18717;DHT22;9487;50.892;6.906;2022-12-20T01:36:35;9.70;99.90
18717;DHT22;9487;50.892;6.906;2022-12-20T01:39:05;9.70;99.90
18717;DHT22;9487;50.892;6.906;2022-12-20T01:41:33;9.80;99.90
18717;DHT22;9487;50.892;6.906;2022-12-20T01:44:02;9.80;99.90
18717;DHT22;9487;50.892;6.906;2022-12-20T01:46:31;9.90;99.90
18717;DHT22;9487;50.892;6.906;2022-12-20T01:49:00;10.00;99.90
18717;DHT22;9487;50.892;6.906;2022-12-20T01:51:31;10.00;99.90
18717;DHT22;9487;50.892;6.906;2022-12-20T01:54:04;10.10;99.90
18717;DHT22;9487;50.892;6.906;2022-12-20T01:56:33;10.10;99.90
18717;DHT22;9487;50.892;6.906;2022-12-20T01:59:01;10.10;99.90
18717;DHT22;9487;50.892;6.906;2022-12-20T02:01:27;10.00;99.90
18717;DHT22;9487;50.892;6.906;2022-12-20T02:03:55;10.00;99.90
18717;DHT22;9487;50.892;6.906;2022-12-20T02:06:24;10.00;99.90
18717;DHT22;9487;50.892;6.906;2022-12-20T02:08:56;9.90;99.90
18717;DHT22;9487;50.892;6.906;2022-12-20T02:11:37;10.00;99.90
18717;DHT22;9487;50.892;6.906;2022-12-20T02:14:10;9.90;99.90
18717;DHT22;9487;50.892;6.906;2022-12-20T02:16:44;10.00;99.90
18717;DHT22;9487;50.892;6.906;2022-12-20T02:19:24;9.90;99.90
18717;DHT22;9487;50.892;6.906;2022-12-20T02:22:03;9.90;99.90
18717;DHT22;9487;50.892;6.906;2022-12-20T02:24:51;9.90;99.90
18717;DHT22;9487;50.892;6.906;2022-12-20T02:27:34;9.90;99.90
18717;DHT22;9487;50.892;6.906;2022-12-20T02:30:13;9.90;99.90
18717;DHT22;9487;50.892;6.906;2022-12-20T02:32:46;9.90;99.90
18717;DHT22;9487;50.892;6.906;2022-12-20T02:35:20;9.90;99.90
18717;DHT22;9487;50.892;6.906;2022-12-20T02:37:49;9.90;99.90
18717;DHT22;9487;50.892;6.906;2022-12-20T02:40:20;9.90;99.90
18717;DHT22;9487;50.892;6.906;2022-12-20T02:42:50;9.90;99.90
18717;DHT22;9487;50.892;6.906;2022-12-20T02:45:21;9.90;99.90
18717;DHT22;9487;50.892;6.906;2022-12-20T02:47:52;9.90;99.90
18717;DHT22;9487;50.892;6.906;2022-12-20T02:50:24;9.90;99.90
18717;DHT22;9487;50.892;6.906;2022-12-20T02:52:52;9.90;99.90
18717;DHT22;9487;50.892;6.906;2022-12-20T02:55:27;9.90;99.90
18717;DHT22;9487;50.892;6.906;2022-12-20T02:58:01;9.90;99.90
18717;DHT22;9487;50.892;6.906;2022-12-20T03:00:33;9.90;99.90
18717;DHT22;9487;50.892;6.906;2022-12-20T03:03:03;9.90;99.90
18717;DHT22;9487;50.892;6.906;2022-12-20T03:05:51;9.90;99.90
18717;DHT22;9487;50.892;6.906;2022-12-20T03:08:19;9.90;99.90
18717;DHT22;9487;50.892;6.906;2022-12-20T03:10:46;9.90;99.90
18717;DHT22;9487;50.892;6.906;2022-12-20T03:13:14;9.80;99.90
18717;DHT22;9487;50.892;6.906;2022-12-20T03:15:42;9.80;99.90
18717;DHT22;9487;50.892;6.906;2022-12-20T03:18:09;9.80;99.90
18717;DHT22;9487;50.892;6.906;2022-12-20T03:20:36;9.80;99.90
18717;DHT22;9487;50.892;6.906;2022-12-20T03:23:03;9.70;99.90
18717;DHT22;9487;50.892;6.906;2022-12-20T03:25:30;9.70;99.90
18717;DHT22;9487;50.892;6.906;2022-12-20T03:27:57;9.70;99.90
18717;DHT22;9487;50.892;6.906;2022-12-20T03:30:24;9.70;99.90
18717;DHT22;9487;50.892;6.906;2022-12-20T03:32:52;9.70;99.90
18717;DHT22;9487;50.892;6.906;2022-12-20T03:35:19;9.70;99.90
18717;DHT22;9487;50.892;6.906;2022-12-20T03:37:46;9.60;99.90
18717;DHT22;9487;50.892;6.906;2022-12-20T03:40:13;9.60;99.90
18717;DHT22;9487;50.892;6.906;2022-12-20T03:42:40;9.60;99.90
18717;DHT22;9487;50.892;6.906;2022-12-20T03:45:08;9.50;99.90
18717;DHT22;9487;50.892;6.906;2022-12-20T03:47:35;9.50;99.90
18717;DHT22;9487;50.892;6.906;2022-12-20T03:50:04;9.50;99.90
18717;DHT22;9487;50.892;6.906;2022-12-20T03:52:31;9.50;99.90
18717;DHT22;9487;50.892;6.906;2022-12-20T03:54:58;9.50;99.90
18717;DHT22;9487;50.892;6.906;2022-12-20T03:57:24;9.60;99.90
18717;DHT22;9487;50.892;6.906;2022-12-20T03:59:51;9.60;99.90
18717;DHT22;9487;50.892;6.906;2022-12-20T04:02:19;9.60;99.90
18717;DHT22;9487;50.892;6.906;2022-12-20T04:04:47;9.60;99.90
18717;DHT22;9487;50.892;6.906;2022-12-20T04:07:15;9.60;99.90
18717;DHT22;9487;50.892;6.906;2022-12-20T04:09:42;9.60;99.90
18717;DHT22;9487;50.892;6.906;2022-12-20T04:12:09;9.50;99.90
18717;DHT22;9487;50.892;6.906;2022-12-20T04:14:36;9.40;99.90
18717;DHT22;9487;50.892;6.906;2022-12-20T04:17:03;9.40;99.90
18717;DHT22;9487;50.892;6.906;2022-12-20T04:19:29;9.30;99.90
18717;DHT22;9487;50.892;6.906;2022-12-20T04:21:56;9.20;99.90
18717;DHT22;9487;50.892;6.906;2022-12-20T04:24:25;9.10;99.90
18717;DHT22;9487;50.892;6.906;2022-12-20T04:26:51;9.10;99.90
18717;DHT22;9487;50.892;6.906;2022-12-20T04:29:18;9.20;99.90
18717;DHT22;9487;50.892;6.906;2022-12-20T04:31:45;9.10;99.90
18717;DHT22;9487;50.892;6.906;2022-12-20T04:34:12;9.20;99.90
18717;DHT22;9487;50.892;6.906;2022-12-20T04:36:38;9.20;99.90
18717;DHT22;9487;50.892;6.906;2022-12-20T04:39:05;9.20;99.90
18717;DHT22;9487;50.892;6.906;2022-12-20T04:41:33;9.30;99.90
18717;DHT22;9487;50.892;6.906;2022-12-20T04:44:00;9.30;99.90
18717;DHT22;9487;50.892;6.906;2022-12-20T04:46:27;9.30;99.90
18717;DHT22;9487;50.892;6.906;2022-12-20T04:48:54;9.40;99.90
18717;DHT22;9487;50.892;6.906;2022-12-20T04:51:21;9.40;99.90
18717;DHT22;9487;50.892;6.906;2022-12-20T04:53:47;9.40;99.90
18717;DHT22;9487;50.892;6.906;2022-12-20T04:56:18;9.40;99.90
18717;DHT22;9487;50.892;6.906;2022-12-20T04:58:48;9.50;99.90
18717;DHT22;9487;50.892;6.906;2022-12-20T05:01:15;9.50;99.90
18717;DHT22;9487;50.892;6.906;2022-12-20T05:03:42;9.50;99.90
18717;DHT22;9487;50.892;6.906;2022-12-20T05:06:09;9.50;99.90
18717;DHT22;9487;50.892;6.906;2022-12-20T05:08:36;9.50;99.90
18717;DHT22;9487;50.892;6.906;2022-12-20T05:11:04;9.60;99.90
18717;DHT22;9487;50.892;6.906;2022-12-20T05:13:32;9.60;99.90
18717;DHT22;9487;50.892;6.906;2022-12-20T05:16:01;9.40;99.90
18717;DHT22;9487;50.892;6.906;2022-12-20T05:18:28;9.30;99.90
18717;DHT22;9487;50.892;6.906;2022-12-20T05:20:56;9.20;99.90
18717;DHT22;9487;50.892;6.906;2022-12-20T05:23:41;9.30;99.90
18717;DHT22;9487;50.892;6.906;2022-12-20T05:26:27;9.20;99.90
18717;DHT22;9487;50.892;6.906;2022-12-20T05:28:55;9.20;99.90
18717;DHT22;9487;50.892;6.906;2022-12-20T05:31:23;9.20;99.90
18717;DHT22;9487;50.892;6.906;2022-12-20T05:33:50;9.20;99.90
18717;DHT22;9487;50.892;6.906;2022-12-20T05:36:16;9.10;99.90
18717;DHT22;9487;50.892;6.906;2022-12-20T05:38:43;9.10;99.90
18717;DHT22;9487;50.892;6.906;2022-12-20T05:41:10;9.00;99.90
18717;DHT22;9487;50.892;6.906;2022-12-20T05:43:37;9.00;99.90
18717;DHT22;9487;50.892;6.906;2022-12-20T05:46:05;8.90;99.90
18717;DHT22;9487;50.892;6.906;2022-12-20T05:48:33;8.90;99.90
18717;DHT22;9487;50.892;6.906;2022-12-20T05:51:00;9.00;99.90
18717;DHT22;9487;50.892;6.906;2022-12-20T05:53:27;8.90;99.90
18717;DHT22;9487;50.892;6.906;2022-12-20T05:55:54;8.90;99.90
18717;DHT22;9487;50.892;6.906;2022-12-20T05:58:21;8.90;99.90
18717;DHT22;9487;50.892;6.906;2022-12-20T06:00:48;8.90;99.90
18717;DHT22;9487;50.892;6.906;2022-12-20T06:03:15;8.80;99.90
18717;DHT22;9487;50.892;6.906;2022-12-20T06:05:43;8.90;99.90
18717;DHT22;9487;50.892;6.906;2022-12-20T06:08:11;8.80;99.90
18717;DHT22;9487;50.892;6.906;2022-12-20T06:10:39;8.80;99.90
18717;DHT22;9487;50.892;6.906;2022-12-20T06:13:07;8.80;99.90
18717;DHT22;9487;50.892;6.906;2022-12-20T06:15:35;8.70;99.90
18717;DHT22;9487;50.892;6.906;2022-12-20T06:18:01;8.70;99.90
18717;DHT22;9487;50.892;6.906;2022-12-20T06:20:28;8.70;99.90
18717;DHT22;9487;50.892;6.906;2022-12-20T06:22:57;8.70;99.90
18717;DHT22;9487;50.892;6.906;2022-12-20T06:25:24;8.60;99.90
18717;DHT22;9487;50.892;6.906;2022-12-20T06:27:51;8.60;99.90
18717;DHT22;9487;50.892;6.906;2022-12-20T06:30:19;8.60;99.90
18717;DHT22;9487;50.892;6.906;2022-12-20T06:32:46;8.60;99.90
18717;DHT22;9487;50.892;6.906;2022-12-20T06:35:13;8.70;99.90
18717;DHT22;9487;50.892;6.906;2022-12-20T06:37:40;8.70;99.90
18717;DHT22;9487;50.892;6.906;2022-12-20T06:40:11;8.70;99.90
18717;DHT22;9487;50.892;6.906;2022-12-20T06:42:38;8.70;99.90
18717;DHT22;9487;50.892;6.906;2022-12-20T06:45:06;8.70;99.90
18717;DHT22;9487;50.892;6.906;2022-12-20T06:47:33;8.80;99.90
18717;DHT22;9487;50.892;6.906;2022-12-20T06:50:00;8.80;99.90
18717;DHT22;9487;50.892;6.906;2022-12-20T06:52:26;8.90;99.90
18717;DHT22;9487;50.892;6.906;2022-12-20T06:54:53;8.80;99.90
18717;DHT22;9487;50.892;6.906;2022-12-20T06:57:21;8.90;99.90
18717;DHT22;9487;50.892;6.906;2022-12-20T06:59:48;8.90;99.90
18717;DHT22;9487;50.892;6.906;2022-12-20T07:02:15;8.90;99.90
18717;DHT22;9487;50.892;6.906;2022-12-20T07:04:42;8.90;99.90
18717;DHT22;9487;50.892;6.906;2022-12-20T07:07:10;8.90;99.90
18717;DHT22;9487;50.892;6.906;2022-12-20T07:09:37;8.90;99.90
18717;DHT22;9487;50.892;6.906;2022-12-20T07:12:06;8.90;99.90
18717;DHT22;9487;50.892;6.906;2022-12-20T07:14:34;8.80;99.90
18717;DHT22;9487;50.892;6.906;2022-12-20T07:17:01;8.70;99.90
18717;DHT22;9487;50.892;6.906;2022-12-20T07:19:28;8.80;99.90
18717;DHT22;9487;50.892;6.906;2022-12-20T07:21:55;8.80;99.90
18717;DHT22;9487;50.892;6.906;2022-12-20T07:24:22;8.80;99.90
18717;DHT22;9487;50.892;6.906;2022-12-20T07:26:48;8.80;99.90
18717;DHT22;9487;50.892;6.906;2022-12-20T07:29:15;8.70;99.90
18717;DHT22;9487;50.892;6.906;2022-12-20T07:31:43;8.60;99.90
18717;DHT22;9487;50.892;6.906;2022-12-20T07:34:10;8.60;99.90
18717;DHT22;9487;50.892;6.906;2022-12-20T07:36:37;8.60;99.90
18717;DHT22;9487;50.892;6.906;2022-12-20T07:39:04;8.50;99.90
18717;DHT22;9487;50.892;6.906;2022-12-20T07:41:31;8.50;99.90
18717;DHT22;9487;50.892;6.906;2022-12-20T07:43:58;8.50;99.90
18717;DHT22;9487;50.892;6.906;2022-12-20T07:46:25;8.50;99.90
18717;DHT22;9487;50.892;6.906;2022-12-20T07:48:53;8.50;99.90
18717;DHT22;9487;50.892;6.906;2022-12-20T07:51:23;8.60;99.90
18717;DHT22;9487;50.892;6.906;2022-12-20T07:53:53;8.60;99.90
18717;DHT22;9487;50.892;6.906;2022-12-20T07:56:23;8.60;99.90
18717;DHT22;9487;50.892;6.906;2022-12-20T07:58:54;8.60;99.90
18717;DHT22;9487;50.892;6.906;2022-12-20T08:01:23;8.60;99.90
18717;DHT22;9487;50.892;6.906;2022-12-20T08:03:55;8.50;99.90
18717;DHT22;9487;50.892;6.906;2022-12-20T08:06:23;8.50;99.90
18717;DHT22;9487;50.892;6.906;2022-12-20T08:08:52;8.50;99.90
18717;DHT22;9487;50.892;6.906;2022-12-20T08:11:21;8.50;99.90
18717;DHT22;9487;50.892;6.906;2022-12-20T08:13:49;8.50;99.90
18717;DHT22;9487;50.892;6.906;2022-12-20T08:16:16;8.60;99.90
18717;DHT22;9487;50.892;6.906;2022-12-20T08:18:43;8.60;99.90
18717;DHT22;9487;50.892;6.906;2022-12-20T08:21:12;8.60;99.90
18717;DHT22;9487;50.892;6.906;2022-12-20T08:23:39;8.60;99.90
18717;DHT22;9487;50.892;6.906;2022-12-20T08:26:06;8.60;99.90
18717;DHT22;9487;50.892;6.906;2022-12-20T08:28:33;8.60;99.90
18717;DHT22;9487;50.892;6.906;2022-12-20T08:31:00;8.70;99.90
18717;DHT22;9487;50.892;6.906;2022-12-20T08:33:27;8.70;99.90
18717;DHT22;9487;50.892;6.906;2022-12-20T08:35:58;8.70;99.90
18717;DHT22;9487;50.892;6.906;2022-12-20T08:38:27;8.80;99.90
18717;DHT22;9487;50.892;6.906;2022-12-20T08:40:55;8.90;99.90
18717;DHT22;9487;50.892;6.906;2022-12-20T08:43:27;9.00;99.90
18717;DHT22;9487;50.892;6.906;2022-12-20T08:45:54;9.00;99.90
18717;DHT22;9487;50.892;6.906;2022-12-20T08:48:21;9.10;99.90
18717;DHT22;9487;50.892;6.906;2022-12-20T08:50:53;9.20;99.90
18717;DHT22;9487;50.892;6.906;2022-12-20T08:53:20;9.30;99.90
18717;DHT22;9487;50.892;6.906;2022-12-20T08:55:48;9.30;99.90
18717;DHT22;9487;50.892;6.906;2022-12-20T08:58:15;9.40;99.90
18717;DHT22;9487;50.892;6.906;2022-12-20T09:00:42;9.50;99.90
18717;DHT22;9487;50.892;6.906;2022-12-20T09:03:08;9.60;99.90
18717;DHT22;9487;50.892;6.906;2022-12-20T09:05:40;9.70;99.90
18717;DHT22;9487;50.892;6.906;2022-12-20T09:08:08;9.80;99.90
18717;DHT22;9487;50.892;6.906;2022-12-20T09:10:35;9.80;99.90
18717;DHT22;9487;50.892;6.906;2022-12-20T09:13:03;9.90;99.90
18717;DHT22;9487;50.892;6.906;2022-12-20T09:15:30;9.80;99.90
18717;DHT22;9487;50.892;6.906;2022-12-20T09:17:58;9.80;99.90
18717;DHT22;9487;50.892;6.906;2022-12-20T09:20:25;9.90;99.90
18717;DHT22;9487;50.892;6.906;2022-12-20T09:22:52;9.90;99.90
18717;DHT22;9487;50.892;6.906;2022-12-20T09:25:19;9.90;99.90
18717;DHT22;9487;50.892;6.906;2022-12-20T09:27:46;9.90;99.90
18717;DHT22;9487;50.892;6.906;2022-12-20T09:30:14;9.90;99.90
18717;DHT22;9487;50.892;6.906;2022-12-20T09:32:41;10.00;99.90
18717;DHT22;9487;50.892;6.906;2022-12-20T09:35:08;10.00;99.90
18717;DHT22;9487;50.892;6.906;2022-12-20T09:37:35;10.10;99.90
18717;DHT22;9487;50.892;6.906;2022-12-20T09:40:02;10.10;99.90
18717;DHT22;9487;50.892;6.906;2022-12-20T09:42:30;10.20;99.90
18717;DHT22;9487;50.892;6.906;2022-12-20T09:45:01;10.30;99.90
18717;DHT22;9487;50.892;6.906;2022-12-20T09:47:32;10.30;99.90
18717;DHT22;9487;50.892;6.906;2022-12-20T09:50:00;10.40;99.90
18717;DHT22;9487;50.892;6.906;2022-12-20T09:52:38;10.50;99.90
18717;DHT22;9487;50.892;6.906;2022-12-20T09:55:16;10.50;99.90
18717;DHT22;9487;50.892;6.906;2022-12-20T09:57:56;10.60;99.90
18717;DHT22;9487;50.892;6.906;2022-12-20T10:00:24;10.70;99.90
18717;DHT22;9487;50.892;6.906;2022-12-20T10:02:52;10.70;99.90
18717;DHT22;9487;50.892;6.906;2022-12-20T10:05:24;10.80;99.90
18717;DHT22;9487;50.892;6.906;2022-12-20T10:08:02;10.80;99.90
18717;DHT22;9487;50.892;6.906;2022-12-20T10:10:52;10.90;99.90
18717;DHT22;9487;50.892;6.906;2022-12-20T10:13:29;10.90;99.90
18717;DHT22;9487;50.892;6.906;2022-12-20T10:16:07;11.00;99.90
18717;DHT22;9487;50.892;6.906;2022-12-20T10:18:49;10.90;99.90
18717;DHT22;9487;50.892;6.906;2022-12-20T10:21:26;11.00;99.90
18717;DHT22;9487;50.892;6.906;2022-12-20T10:24:00;11.00;99.90
18717;DHT22;9487;50.892;6.906;2022-12-20T10:26:28;11.00;99.90
18717;DHT22;9487;50.892;6.906;2022-12-20T10:28:55;11.10;99.90
18717;DHT22;9487;50.892;6.906;2022-12-20T10:31:22;11.10;99.90
18717;DHT22;9487;50.892;6.906;2022-12-20T10:33:51;11.20;99.90
18717;DHT22;9487;50.892;6.906;2022-12-20T10:36:20;11.20;99.90
18717;DHT22;9487;50.892;6.906;2022-12-20T10:38:50;11.30;99.90
18717;DHT22;9487;50.892;6.906;2022-12-20T10:41:19;11.30;99.90
18717;DHT22;9487;50.892;6.906;2022-12-20T10:43:49;11.40;99.90
18717;DHT22;9487;50.892;6.906;2022-12-20T10:46:18;11.40;99.90
18717;DHT22;9487;50.892;6.906;2022-12-20T10:48:46;11.40;99.90
18717;DHT22;9487;50.892;6.906;2022-12-20T10:51:17;11.50;99.90
18717;DHT22;9487;50.892;6.906;2022-12-20T10:53:54;11.50;99.90
18717;DHT22;9487;50.892;6.906;2022-12-20T10:56:22;11.50;99.90
18717;DHT22;9487;50.892;6.906;2022-12-20T10:58:54;11.40;99.90
18717;DHT22;9487;50.892;6.906;2022-12-20T11:01:24;11.50;99.90
18717;DHT22;9487;50.892;6.906;2022-12-20T11:03:57;11.50;99.90
18717;DHT22;9487;50.892;6.906;2022-12-20T11:06:38;11.50;99.90
18717;DHT22;9487;50.892;6.906;2022-12-20T11:09:30;11.50;99.90
18717;DHT22;9487;50.892;6.906;2022-12-20T11:12:02;11.50;99.90
18717;DHT22;9487;50.892;6.906;2022-12-20T11:14:30;11.60;99.90
18717;DHT22;9487;50.892;6.906;2022-12-20T11:16:58;11.60;99.90
18717;DHT22;9487;50.892;6.906;2022-12-20T11:19:43;11.50;99.90
18717;DHT22;9487;50.892;6.906;2022-12-20T11:22:23;11.50;99.90
18717;DHT22;9487;50.892;6.906;2022-12-20T11:24:57;11.50;99.90
18717;DHT22;9487;50.892;6.906;2022-12-20T11:27:32;11.60;99.90
18717;DHT22;9487;50.892;6.906;2022-12-20T11:30:08;11.50;99.90
18717;DHT22;9487;50.892;6.906;2022-12-20T11:33:09;11.40;99.90
18717;DHT22;9487;50.892;6.906;2022-12-20T11:35:48;11.40;99.90
18717;DHT22;9487;50.892;6.906;2022-12-20T11:38:33;11.40;99.90
18717;DHT22;9487;50.892;6.906;2022-12-20T11:41:11;11.30;99.90
18717;DHT22;9487;50.892;6.906;2022-12-20T11:44:01;11.30;99.90
18717;DHT22;9487;50.892;6.906;2022-12-20T11:46:42;11.30;99.90
18717;DHT22;9487;50.892;6.906;2022-12-20T11:49:27;11.30;99.90
18717;DHT22;9487;50.892;6.906;2022-12-20T11:55:25;11.20;99.90
18717;DHT22;9487;50.892;6.906;2022-12-20T11:57:58;11.30;99.90
18717;DHT22;9487;50.892;6.906;2022-12-20T12:00:27;11.20;99.90
18717;DHT22;9487;50.892;6.906;2022-12-20T12:02:58;11.20;99.90
18717;DHT22;9487;50.892;6.906;2022-12-20T12:05:28;11.20;99.90
18717;DHT22;9487;50.892;6.906;2022-12-20T12:08:06;11.20;99.90
18717;DHT22;9487;50.892;6.906;2022-12-20T12:10:40;11.20;99.90
18717;DHT22;9487;50.892;6.906;2022-12-20T12:13:14;11.10;99.90
18717;DHT22;9487;50.892;6.906;2022-12-20T12:15:47;11.20;99.90
18717;DHT22;9487;50.892;6.906;2022-12-20T12:18:19;11.20;99.90
18717;DHT22;9487;50.892;6.906;2022-12-20T12:20:58;11.30;99.90
18717;DHT22;9487;50.892;6.906;2022-12-20T12:23:30;11.30;99.90
18717;DHT22;9487;50.892;6.906;2022-12-20T12:26:03;11.20;99.90
18717;DHT22;9487;50.892;6.906;2022-12-20T12:28:32;11.20;99.90
18717;DHT22;9487;50.892;6.906;2022-12-20T12:31:05;11.20;99.90
18717;DHT22;9487;50.892;6.906;2022-12-20T12:33:37;11.20;99.90
18717;DHT22;9487;50.892;6.906;2022-12-20T12:36:38;11.20;99.90
18717;DHT22;9487;50.892;6.906;2022-12-20T12:39:37;11.20;99.90
18717;DHT22;9487;50.892;6.906;2022-12-20T12:45:15;11.20;99.90
18717;DHT22;9487;50.892;6.906;2022-12-20T12:47:50;11.10;99.90
18717;DHT22;9487;50.892;6.906;2022-12-20T12:50:23;11.00;99.90
18717;DHT22;9487;50.892;6.906;2022-12-20T12:52:53;11.10;99.90
18717;DHT22;9487;50.892;6.906;2022-12-20T12:55:44;11.10;99.90
18717;DHT22;9487;50.892;6.906;2022-12-20T12:58:29;11.00;99.90
18717;DHT22;9487;50.892;6.906;2022-12-20T13:00:57;11.10;99.90
18717;DHT22;9487;50.892;6.906;2022-12-20T13:03:44;11.10;99.90
18717;DHT22;9487;50.892;6.906;2022-12-20T13:06:42;11.10;99.90
18717;DHT22;9487;50.892;6.906;2022-12-20T13:09:18;11.00;99.90
18717;DHT22;9487;50.892;6.906;2022-12-20T13:11:47;11.00;99.90
18717;DHT22;9487;50.892;6.906;2022-12-20T13:14:47;11.00;99.90
18717;DHT22;9487;50.892;6.906;2022-12-20T13:17:47;11.00;99.90
18717;DHT22;9487;50.892;6.906;2022-12-20T13:20:18;11.00;99.90
18717;DHT22;9487;50.892;6.906;2022-12-20T13:23:11;10.90;99.90
18717;DHT22;9487;50.892;6.906;2022-12-20T13:25:43;11.00;99.90
18717;DHT22;9487;50.892;6.906;2022-12-20T13:28:44;11.00;99.90
18717;DHT22;9487;50.892;6.906;2022-12-20T13:31:31;10.90;99.90
18717;DHT22;9487;50.892;6.906;2022-12-20T13:34:01;10.90;99.90
18717;DHT22;9487;50.892;6.906;2022-12-20T13:36:30;10.90;99.90
18717;DHT22;9487;50.892;6.906;2022-12-20T13:38:59;11.00;99.90
18717;DHT22;9487;50.892;6.906;2022-12-20T13:41:32;11.00;99.90
18717;DHT22;9487;50.892;6.906;2022-12-20T13:44:07;10.80;99.90
18717;DHT22;9487;50.892;6.906;2022-12-20T13:46:42;10.80;99.90
18717;DHT22;9487;50.892;6.906;2022-12-20T13:49:19;10.80;99.90
18717;DHT22;9487;50.892;6.906;2022-12-20T13:51:47;10.90;99.90
18717;DHT22;9487;50.892;6.906;2022-12-20T13:54:16;10.90;99.90
18717;DHT22;9487;50.892;6.906;2022-12-20T13:56:45;11.00;99.90
18717;DHT22;9487;50.892;6.906;2022-12-20T13:59:15;10.90;99.90
18717;DHT22;9487;50.892;6.906;2022-12-20T14:01:52;11.00;99.90
18717;DHT22;9487;50.892;6.906;2022-12-20T14:04:19;11.00;99.90
18717;DHT22;9487;50.892;6.906;2022-12-20T14:06:50;11.00;99.90
18717;DHT22;9487;50.892;6.906;2022-12-20T14:09:27;11.10;99.90
18717;DHT22;9487;50.892;6.906;2022-12-20T14:11:54;11.10;99.90
18717;DHT22;9487;50.892;6.906;2022-12-20T14:14:21;11.10;99.90
18717;DHT22;9487;50.892;6.906;2022-12-20T14:16:49;11.10;99.90
18717;DHT22;9487;50.892;6.906;2022-12-20T14:19:15;11.10;99.90
18717;DHT22;9487;50.892;6.906;2022-12-20T14:21:43;11.10;99.90
18717;DHT22;9487;50.892;6.906;2022-12-20T14:24:14;11.00;99.90
18717;DHT22;9487;50.892;6.906;2022-12-20T14:26:44;11.10;99.90
18717;DHT22;9487;50.892;6.906;2022-12-20T14:29:17;11.00;99.90
18717;DHT22;9487;50.892;6.906;2022-12-20T14:31:46;10.90;99.90
18717;DHT22;9487;50.892;6.906;2022-12-20T14:34:17;11.00;99.90
18717;DHT22;9487;50.892;6.906;2022-12-20T14:36:46;10.90;99.90
18717;DHT22;9487;50.892;6.906;2022-12-20T14:39:24;10.90;99.90
18717;DHT22;9487;50.892;6.906;2022-12-20T14:41:57;10.80;99.90
18717;DHT22;9487;50.892;6.906;2022-12-20T14:44:25;10.80;99.90
18717;DHT22;9487;50.892;6.906;2022-12-20T14:46:53;10.70;99.90
18717;DHT22;9487;50.892;6.906;2022-12-20T14:49:25;10.70;99.90
18717;DHT22;9487;50.892;6.906;2022-12-20T14:52:05;10.70;99.90
18717;DHT22;9487;50.892;6.906;2022-12-20T14:54:32;10.70;99.90
18717;DHT22;9487;50.892;6.906;2022-12-20T14:57:00;10.70;99.90
18717;DHT22;9487;50.892;6.906;2022-12-20T14:59:28;10.70;99.90
18717;DHT22;9487;50.892;6.906;2022-12-20T15:01:56;10.70;99.90
18717;DHT22;9487;50.892;6.906;2022-12-20T15:04:30;10.70;99.90
18717;DHT22;9487;50.892;6.906;2022-12-20T15:06:57;10.70;99.90
18717;DHT22;9487;50.892;6.906;2022-12-20T15:09:24;10.70;99.90
18717;DHT22;9487;50.892;6.906;2022-12-20T15:11:52;10.70;99.90
18717;DHT22;9487;50.892;6.906;2022-12-20T15:14:31;10.60;99.90
18717;DHT22;9487;50.892;6.906;2022-12-20T15:16:59;10.60;99.90
18717;DHT22;9487;50.892;6.906;2022-12-20T15:19:27;10.60;99.90
18717;DHT22;9487;50.892;6.906;2022-12-20T15:21:55;10.60;99.90
18717;DHT22;9487;50.892;6.906;2022-12-20T15:24:24;10.60;99.90
18717;DHT22;9487;50.892;6.906;2022-12-20T15:26:51;10.60;99.90
18717;DHT22;9487;50.892;6.906;2022-12-20T15:29:21;10.60;99.90
18717;DHT22;9487;50.892;6.906;2022-12-20T15:31:49;10.50;99.90
18717;DHT22;9487;50.892;6.906;2022-12-20T15:34:18;10.50;99.90
18717;DHT22;9487;50.892;6.906;2022-12-20T15:36:51;10.50;99.90
18717;DHT22;9487;50.892;6.906;2022-12-20T15:39:18;10.50;99.90
18717;DHT22;9487;50.892;6.906;2022-12-20T15:41:47;10.50;99.90
18717;DHT22;9487;50.892;6.906;2022-12-20T15:44:16;10.40;99.90
18717;DHT22;9487;50.892;6.906;2022-12-20T15:46:44;10.40;99.90
18717;DHT22;9487;50.892;6.906;2022-12-20T15:49:13;10.40;99.90
18717;DHT22;9487;50.892;6.906;2022-12-20T15:51:41;10.40;99.90
18717;DHT22;9487;50.892;6.906;2022-12-20T15:54:19;10.40;99.90
18717;DHT22;9487;50.892;6.906;2022-12-20T15:56:48;10.40;99.90
18717;DHT22;9487;50.892;6.906;2022-12-20T15:59:15;10.40;99.90
18717;DHT22;9487;50.892;6.906;2022-12-20T16:01:42;10.30;99.90
18717;DHT22;9487;50.892;6.906;2022-12-20T16:04:13;10.30;99.90
18717;DHT22;9487;50.892;6.906;2022-12-20T16:06:40;10.30;99.90
18717;DHT22;9487;50.892;6.906;2022-12-20T16:09:07;10.40;99.90
18717;DHT22;9487;50.892;6.906;2022-12-20T16:11:36;10.40;99.90
18717;DHT22;9487;50.892;6.906;2022-12-20T16:14:03;10.50;99.90
18717;DHT22;9487;50.892;6.906;2022-12-20T16:16:32;10.40;99.90
18717;DHT22;9487;50.892;6.906;2022-12-20T16:18:59;10.30;99.90
18717;DHT22;9487;50.892;6.906;2022-12-20T16:21:28;10.30;99.90